Decoded Metar for KWST (WESTERLY in RI, USA) (IATA:WST) | Meteo·Mobile Aviation Weather
aviador You're here:

KWST Decoded Metar

WESTERLY in RI, USA
Report Time2018-10-19 18:53:00
UTC Time2018-10-19 19:27:03
Flight Rules vfr VFR
Wind240° at 09 kt
W.Decomp.*RWY 25: 9.0 kt HW 0.8 kt RCW
RWY 32: 3.8 kt HW 8.2 kt LCW
W.Rank240° ranks 2
Current wind is above 240° avg. (7.4)
Visibility9999 m
Phenomena:N/A
Clouds:N/A
Expected CloudBase > 4,000 ft AGL from Temp-Dew spread
CeilingNone
Temp15°C (ISA 0)
Dew Point05°C (51% RH)
AAT10.6°C
QNH1019 hPa
Density Alt3 ft
Elevation69 ft
Report Wrong Elevation
Raw Report
KWST 191853Z AUTO 24009KT 10SM CLR 15/05 A3010 RMK AO2 SLP194
T01500050 $=

Extra information for KWST:More info

Metar Taf Metar & Taf Last 4 Metars F.Rules Stats Wind Profile Meteogram Temp Stats Airport Information Weather charts Add Link Nearby VenuesMetar ALERT Operation Metar Decoded Social comments

AIRNAV info for KWST